createdAt,value
2023-02-24T00:01:40.416Z,27.60
2023-02-24T00:04:14.016Z,27.60
2023-02-24T00:06:44.096Z,27.60
2023-02-24T00:09:16.699Z,27.60
2023-02-24T00:11:56.937Z,27.60
2023-02-24T00:14:27.520Z,27.60
2023-02-24T00:16:56.226Z,27.60
2023-02-24T00:19:26.479Z,27.50
2023-02-24T00:21:54.808Z,27.50
2023-02-24T00:24:23.294Z,27.50
2023-02-24T00:27:00.813Z,27.60
2023-02-24T00:29:30.490Z,27.50
2023-02-24T00:32:01.284Z,27.50
2023-02-24T00:34:31.819Z,27.50
2023-02-24T00:37:00.504Z,27.50
2023-02-24T00:39:30.238Z,27.50
2023-02-24T00:41:59.123Z,27.50
2023-02-24T00:44:27.241Z,27.50
2023-02-24T00:46:55.602Z,27.50
2023-02-24T00:49:23.869Z,27.50
2023-02-24T00:51:52.171Z,27.50
2023-02-24T00:54:20.623Z,27.50
2023-02-24T00:56:49.477Z,27.50
2023-02-24T00:59:18.695Z,27.50
2023-02-24T01:01:47.894Z,27.50
2023-02-24T01:04:17.364Z,27.50
2023-02-24T01:06:48.844Z,27.50
2023-02-24T01:09:21.330Z,27.50
2023-02-24T01:11:50.641Z,27.50
2023-02-24T01:14:22.300Z,27.50
2023-02-24T01:16:50.863Z,27.50
2023-02-24T01:19:21.533Z,27.40
2023-02-24T01:21:50.132Z,27.50
2023-02-24T01:24:18.433Z,27.50
2023-02-24T01:26:46.806Z,27.40
2023-02-24T01:29:14.944Z,27.40
2023-02-24T01:31:43.531Z,27.40
2023-02-24T01:34:14.366Z,27.50
2023-02-24T01:36:43.351Z,27.50
2023-02-24T01:39:12.993Z,27.40
2023-02-24T01:41:46.530Z,27.40
2023-02-24T01:44:14.793Z,27.40
2023-02-24T01:46:48.137Z,27.40
2023-02-24T01:49:21.162Z,27.40
2023-02-24T01:52:03.041Z,27.40
2023-02-24T01:54:37.774Z,27.40
2023-02-24T01:57:07.174Z,27.40
2023-02-24T01:59:36.119Z,27.30
2023-02-24T02:02:07.403Z,27.30
2023-02-24T02:04:57.010Z,27.30
2023-02-24T02:07:29.568Z,27.30
2023-02-24T02:13:19.897Z,27.30
2023-02-24T02:16:22.796Z,27.30
2023-02-24T02:19:00.962Z,27.40
2023-02-24T02:21:47.386Z,27.30
2023-02-24T02:24:22.119Z,27.30
2023-02-24T02:26:53.477Z,27.30
2023-02-24T02:29:58.745Z,27.30
2023-02-24T02:32:49.657Z,27.30
2023-02-24T02:35:28.805Z,27.30
2023-02-24T02:38:15.454Z,27.30
2023-02-24T02:41:07.525Z,27.20
2023-02-24T02:43:51.089Z,27.20
2023-02-24T02:46:38.990Z,27.20
2023-02-24T02:49:34.877Z,27.20
2023-02-24T02:52:17.290Z,27.20
2023-02-24T02:54:56.046Z,27.20
2023-02-24T02:57:31.809Z,27.20
2023-02-24T03:00:11.432Z,27.20
2023-02-24T03:02:45.772Z,27.20
2023-02-24T03:05:18.940Z,27.30
2023-02-24T03:07:51.688Z,27.20
2023-02-24T03:10:31.032Z,27.20
2023-02-24T03:13:02.383Z,27.20
2023-02-24T03:15:33.656Z,27.20
2023-02-24T03:18:09.953Z,27.20
2023-02-24T03:20:46.124Z,27.20
2023-02-24T03:23:27.478Z,27.20
2023-02-24T03:26:06.543Z,27.20
2023-02-24T03:28:45.289Z,27.20
2023-02-24T03:31:28.904Z,27.20
2023-02-24T03:34:32.037Z,27.20
2023-02-24T03:37:00.388Z,27.10
2023-02-24T03:39:29.484Z,27.10
2023-02-24T03:42:19.019Z,27.10
2023-02-24T03:44:49.016Z,27.10
2023-02-24T03:47:18.971Z,27.10
2023-02-24T03:49:48.736Z,27.10
2023-02-24T03:52:41.162Z,27.10
2023-02-24T03:55:09.613Z,27.10
2023-02-24T03:58:15.133Z,27.10
2023-02-24T04:01:05.620Z,27.00
2023-02-24T04:03:50.702Z,27.00
2023-02-24T04:06:49.269Z,27.00
2023-02-24T04:09:32.824Z,27.00
2023-02-24T04:12:25.699Z,26.90
2023-02-24T04:15:01.687Z,26.90
2023-02-24T04:17:37.815Z,26.80
2023-02-24T04:20:10.251Z,26.80
2023-02-24T04:22:44.273Z,26.70
2023-02-24T04:25:13.346Z,26.70
2023-02-24T04:27:45.027Z,26.60
2023-02-24T04:30:18.838Z,26.60
2023-02-24T04:32:47.704Z,26.60
2023-02-24T04:35:20.233Z,26.60
2023-02-24T04:37:54.066Z,26.60
2023-02-24T04:40:23.600Z,26.60
2023-02-24T04:42:53.957Z,26.60
2023-02-24T04:45:26.105Z,26.60
2023-02-24T04:47:54.822Z,26.60
2023-02-24T04:50:26.287Z,26.60
2023-02-24T04:53:02.743Z,26.60
2023-02-24T04:55:32.383Z,26.60
2023-02-24T04:58:01.897Z,26.60
2023-02-24T05:00:30.789Z,26.60
2023-02-24T05:02:59.104Z,26.60
2023-02-24T05:05:27.170Z,26.60
2023-02-24T05:07:57.631Z,26.50
2023-02-24T05:10:25.781Z,26.60
2023-02-24T05:12:57.968Z,26.50
2023-02-24T05:15:27.285Z,26.60
2023-02-24T05:17:55.516Z,26.60
2023-02-24T05:20:23.839Z,26.60
2023-02-24T05:22:52.072Z,26.50
2023-02-24T05:25:21.432Z,26.50
2023-02-24T05:27:49.724Z,26.50
2023-02-24T05:30:17.958Z,26.50
2023-02-24T05:32:46.306Z,26.50
2023-02-24T05:35:14.599Z,26.50
2023-02-24T05:37:42.885Z,26.50
2023-02-24T05:40:11.946Z,26.50
2023-02-24T05:42:41.484Z,26.50
2023-02-24T05:45:10.953Z,26.50
2023-02-24T05:47:40.408Z,26.50
2023-02-24T05:50:09.004Z,26.50
2023-02-24T05:52:37.239Z,26.50
2023-02-24T05:55:06.476Z,26.50
2023-02-24T05:57:34.656Z,26.50
2023-02-24T06:00:04.506Z,26.50
2023-02-24T06:02:40.589Z,26.50
2023-02-24T06:05:09.336Z,26.40
2023-02-24T06:07:37.415Z,26.40
2023-02-24T06:10:06.205Z,26.40
2023-02-24T06:12:35.937Z,26.30
2023-02-24T06:15:04.401Z,26.30
2023-02-24T06:17:32.616Z,26.30
2023-02-24T06:20:00.846Z,26.20
2023-02-24T06:22:29.131Z,26.20
2023-02-24T06:24:57.537Z,26.20
2023-02-24T06:27:26.094Z,26.20
2023-02-24T06:29:55.364Z,26.20
2023-02-24T06:32:26.899Z,26.20
2023-02-24T06:34:55.475Z,26.10
2023-02-24T06:37:23.616Z,26.20
2023-02-24T06:39:51.891Z,26.20
2023-02-24T06:42:20.243Z,26.10
2023-02-24T06:44:48.605Z,26.10
2023-02-24T06:47:17.053Z,26.10
2023-02-24T06:49:45.196Z,26.10
2023-02-24T06:52:13.450Z,26.10
2023-02-24T06:54:41.824Z,26.00
2023-02-24T06:57:11.363Z,26.00
2023-02-24T06:59:39.716Z,26.00
2023-02-24T07:02:10.939Z,26.00
2023-02-24T07:04:39.262Z,26.00
2023-02-24T07:07:07.335Z,26.00
2023-02-24T07:09:35.634Z,26.00
2023-02-24T07:12:04.060Z,25.90
2023-02-24T07:14:32.402Z,26.00
2023-02-24T07:17:01.286Z,26.00
2023-02-24T07:19:31.346Z,26.00
2023-02-24T07:22:02.478Z,26.00
2023-02-24T07:24:33.834Z,26.10
2023-02-24T07:27:08.716Z,26.10
2023-02-24T07:29:37.714Z,26.10
2023-02-24T07:32:08.750Z,26.10
2023-02-24T07:34:37.622Z,26.10
2023-02-24T07:37:05.939Z,26.10
2023-02-24T07:39:34.807Z,26.10
2023-02-24T07:42:03.171Z,26.20
2023-02-24T07:44:40.360Z,26.20
2023-02-24T07:47:08.730Z,26.30
2023-02-24T07:49:37.871Z,26.20
2023-02-24T07:54:02.140Z,26.30
2023-02-24T07:56:32.051Z,26.30
2023-02-24T07:59:03.212Z,26.30
2023-02-24T08:01:35.797Z,26.30
2023-02-24T08:04:04.087Z,26.40
2023-02-24T08:06:34.674Z,26.40
2023-02-24T08:09:03.098Z,26.40
2023-02-24T08:11:32.388Z,26.40
2023-02-24T08:14:00.682Z,26.50
2023-02-24T08:16:31.880Z,26.50
2023-02-24T08:19:00.163Z,26.50
2023-02-24T08:21:28.506Z,26.60
2023-02-24T08:23:59.473Z,26.60
2023-02-24T08:26:27.891Z,26.60
2023-02-24T08:28:56.199Z,26.60
2023-02-24T08:31:24.893Z,26.70
2023-02-24T08:33:53.582Z,26.60
2023-02-24T08:36:21.814Z,26.60
2023-02-24T08:38:50.173Z,26.60
2023-02-24T08:41:21.675Z,26.60
2023-02-24T08:43:50.435Z,26.70
2023-02-24T08:46:23.917Z,26.70
2023-02-24T08:48:57.774Z,26.70
2023-02-24T08:51:32.731Z,26.70
2023-02-24T08:54:07.620Z,26.80
2023-02-24T08:56:35.951Z,26.80
2023-02-24T08:59:06.619Z,26.80
2023-02-24T09:01:38.433Z,26.80
2023-02-24T09:04:10.553Z,26.90
2023-02-24T09:06:46.178Z,26.90
2023-02-24T09:09:17.845Z,26.90
2023-02-24T09:11:58.554Z,26.90
2023-02-24T09:14:31.950Z,26.90
2023-02-24T09:17:00.660Z,26.90
2023-02-24T09:19:37.791Z,27.00
2023-02-24T09:22:10.418Z,27.00
2023-02-24T09:24:44.665Z,27.10
2023-02-24T09:27:12.867Z,27.10
2023-02-24T09:29:41.155Z,27.10
2023-02-24T09:32:11.713Z,27.20
2023-02-24T09:34:42.427Z,27.30
2023-02-24T09:37:14.981Z,27.30
2023-02-24T09:39:43.185Z,27.40
2023-02-24T09:42:13.604Z,27.50
2023-02-24T09:44:44.926Z,27.60
2023-02-24T09:47:18.984Z,27.60
2023-02-24T09:49:54.892Z,27.70
2023-02-24T09:52:27.643Z,27.70
2023-02-24T09:54:56.067Z,27.70
2023-02-24T09:57:25.352Z,27.80
2023-02-24T09:59:57.015Z,27.80
2023-02-24T10:02:43.024Z,27.90
2023-02-24T10:05:39.497Z,27.90
2023-02-24T10:08:22.729Z,28.00
2023-02-24T10:10:51.090Z,28.10
2023-02-24T10:13:24.228Z,28.10
2023-02-24T10:15:56.986Z,28.10
2023-02-24T10:18:43.829Z,28.20
2023-02-24T10:21:24.349Z,28.20
2023-02-24T10:24:07.126Z,28.30
2023-02-24T10:27:01.176Z,28.20
2023-02-24T10:29:50.620Z,28.30
2023-02-24T10:32:29.285Z,28.30
2023-02-24T10:34:57.672Z,28.30
2023-02-24T10:37:28.955Z,28.40
2023-02-24T10:40:03.332Z,28.30
2023-02-24T10:42:36.078Z,28.30
2023-02-24T10:45:18.505Z,28.30
2023-02-24T10:47:58.030Z,28.40
2023-02-24T10:50:32.816Z,28.30
2023-02-24T10:53:12.019Z,28.40
2023-02-24T10:55:48.293Z,28.40
2023-02-24T10:58:18.385Z,28.50
2023-02-24T11:00:48.525Z,28.60
2023-02-24T11:03:27.938Z,28.50
2023-02-24T11:06:00.614Z,28.60
2023-02-24T11:08:28.925Z,28.70
2023-02-24T11:10:57.406Z,28.80
2023-02-24T11:13:27.040Z,28.80
2023-02-24T11:15:58.118Z,28.80
2023-02-24T11:18:28.645Z,28.90
2023-02-24T11:21:00.947Z,29.00
2023-02-24T11:23:40.950Z,29.00
2023-02-24T11:26:21.161Z,29.10
2023-02-24T11:28:55.585Z,29.10
2023-02-24T11:31:32.499Z,29.20
2023-02-24T11:34:03.859Z,29.30
2023-02-24T11:36:44.327Z,29.20
2023-02-24T11:39:31.599Z,29.20
2023-02-24T11:42:05.636Z,29.20
2023-02-24T11:44:44.641Z,29.30
2023-02-24T11:47:17.099Z,29.20
2023-02-24T11:50:15.224Z,29.20
2023-02-24T11:52:46.351Z,29.30
2023-02-24T11:55:37.307Z,29.20
2023-02-24T11:58:41.226Z,29.20
2023-02-24T12:01:12.599Z,29.20
2023-02-24T12:03:54.874Z,29.40
2023-02-24T12:06:58.490Z,29.50
2023-02-24T12:09:34.877Z,29.40
2023-02-24T12:12:11.772Z,29.50
2023-02-24T12:14:54.709Z,29.50
2023-02-24T12:17:31.859Z,29.60
2023-02-24T12:20:39.593Z,29.70
2023-02-24T12:23:20.118Z,29.80
2023-02-24T12:26:47.149Z,29.80
2023-02-24T12:29:42.479Z,29.90
2023-02-24T12:32:35.520Z,29.90
2023-02-24T12:35:12.974Z,29.80
2023-02-24T12:37:55.886Z,29.80
2023-02-24T12:41:10.305Z,29.80
2023-02-24T12:44:22.944Z,29.90
2023-02-24T12:47:16.318Z,29.90
2023-02-24T12:50:14.552Z,29.90
2023-02-24T12:53:07.402Z,29.90
2023-02-24T12:55:58.092Z,29.90
2023-02-24T12:58:37.664Z,30.10
2023-02-24T13:01:12.278Z,30.10
2023-02-24T13:04:08.703Z,29.90
2023-02-24T13:06:55.693Z,29.90
2023-02-24T13:09:53.744Z,29.90
2023-02-24T13:12:34.078Z,29.90
2023-02-24T13:15:20.908Z,29.90
2023-02-24T13:17:50.684Z,30.00
2023-02-24T13:20:34.465Z,30.00
2023-02-24T13:23:04.599Z,30.10
2023-02-24T13:25:38.148Z,30.20
2023-02-24T13:28:24.018Z,30.20
2023-02-24T13:31:19.369Z,30.20
2023-02-24T13:33:47.822Z,30.30
2023-02-24T13:36:18.229Z,30.30
2023-02-24T13:38:49.125Z,30.20
2023-02-24T13:41:29.213Z,30.30
2023-02-24T13:44:22.380Z,30.30
2023-02-24T13:47:15.429Z,30.30
2023-02-24T13:50:17.577Z,30.30
2023-02-24T13:52:55.053Z,30.30
2023-02-24T13:55:36.897Z,30.30
2023-02-24T13:58:30.058Z,30.30
2023-02-24T14:01:10.493Z,30.20
2023-02-24T14:03:41.875Z,30.30
2023-02-24T14:06:25.816Z,30.20
2023-02-24T14:09:00.254Z,30.30
2023-02-24T14:11:33.319Z,30.20
2023-02-24T14:14:01.591Z,30.20
2023-02-24T14:16:39.511Z,30.30
2023-02-24T14:19:14.222Z,30.40
2023-02-24T14:21:53.025Z,30.30
2023-02-24T14:24:22.582Z,30.30
2023-02-24T14:26:57.002Z,30.30
2023-02-24T14:29:30.460Z,30.40
2023-02-24T14:31:59.488Z,30.40
2023-02-24T14:34:31.115Z,30.30
2023-02-24T14:37:01.682Z,30.50
2023-02-24T14:39:32.469Z,30.50
2023-02-24T14:42:09.732Z,30.60
2023-02-24T14:44:44.375Z,30.60
2023-02-24T14:47:15.378Z,30.60
2023-02-24T14:49:53.649Z,30.60
2023-02-24T14:52:28.071Z,30.60
2023-02-24T14:55:07.542Z,30.60
2023-02-24T14:57:51.989Z,30.70
2023-02-24T15:00:30.343Z,30.60
2023-02-24T15:03:07.722Z,30.70
2023-02-24T15:05:41.553Z,30.80
2023-02-24T15:08:24.228Z,30.80
2023-02-24T15:10:52.588Z,30.80
2023-02-24T15:13:38.452Z,30.80
2023-02-24T15:16:14.975Z,30.80
2023-02-24T15:18:43.447Z,30.80
2023-02-24T15:21:22.584Z,30.80
2023-02-24T15:23:58.496Z,30.90
2023-02-24T15:26:29.065Z,30.90
2023-02-24T15:29:14.767Z,30.70
2023-02-24T15:31:48.917Z,30.70
2023-02-24T15:34:23.031Z,30.80
2023-02-24T15:36:56.416Z,31.00
2023-02-24T15:39:28.393Z,31.00
2023-02-24T15:42:17.759Z,31.00
2023-02-24T15:44:54.504Z,31.10
2023-02-24T15:47:24.846Z,31.10
2023-02-24T15:49:53.310Z,31.10
2023-02-24T15:52:27.911Z,31.20
2023-02-24T15:54:57.109Z,31.20
2023-02-24T15:57:26.016Z,31.30
2023-02-24T15:59:54.590Z,31.20
2023-02-24T16:02:24.264Z,31.30
2023-02-24T16:04:53.413Z,31.30
2023-02-24T16:07:35.006Z,31.10
2023-02-24T16:10:04.774Z,31.10
2023-02-24T16:12:47.182Z,30.90
2023-02-24T16:15:21.182Z,30.90
2023-02-24T16:17:50.300Z,30.90
2023-02-24T16:20:23.058Z,31.00
2023-02-24T16:22:51.287Z,31.10
2023-02-24T16:25:19.420Z,31.30
2023-02-24T16:27:47.826Z,31.20
2023-02-24T16:30:22.612Z,31.30
2023-02-24T16:32:51.534Z,31.30
2023-02-24T16:35:21.774Z,31.00
2023-02-24T16:37:50.034Z,30.90
2023-02-24T16:40:26.435Z,31.00
2023-02-24T16:42:54.985Z,31.00
2023-02-24T16:45:27.988Z,30.90
2023-02-24T16:48:00.541Z,30.80
2023-02-24T16:50:43.420Z,30.60
2023-02-24T16:53:16.944Z,30.60
2023-02-24T16:55:46.328Z,30.80
2023-02-24T16:58:15.010Z,30.80
2023-02-24T17:00:46.449Z,30.70
2023-02-24T17:03:20.717Z,30.60
2023-02-24T17:05:49.590Z,30.40
2023-02-24T17:08:18.202Z,30.30
2023-02-24T17:10:47.580Z,30.30
2023-02-24T17:13:18.910Z,30.00
2023-02-24T17:15:47.705Z,29.70
2023-02-24T17:18:15.896Z,29.80
2023-02-24T17:20:44.212Z,30.00
2023-02-24T17:23:12.931Z,29.90
2023-02-24T17:25:41.093Z,30.00
2023-02-24T17:28:10.590Z,30.10
2023-02-24T17:30:39.384Z,30.00
2023-02-24T17:33:08.242Z,29.90
2023-02-24T17:35:36.543Z,29.70
2023-02-24T17:38:04.891Z,29.50
2023-02-24T17:40:33.077Z,29.30
2023-02-24T17:43:01.561Z,29.40
2023-02-24T17:45:30.036Z,29.30
2023-02-24T17:47:58.245Z,29.20
2023-02-24T17:50:26.817Z,29.20
2023-02-24T17:52:55.220Z,29.20
2023-02-24T17:55:23.608Z,29.20
2023-02-24T17:57:51.706Z,29.10
2023-02-24T18:00:20.279Z,29.00
2023-02-24T18:02:48.877Z,28.80
2023-02-24T18:05:17.238Z,28.60
2023-02-24T18:07:45.645Z,28.70
2023-02-24T18:10:14.243Z,28.70
2023-02-24T18:12:42.419Z,28.60
2023-02-24T18:15:11.424Z,28.50
2023-02-24T18:17:39.780Z,28.40
2023-02-24T18:20:09.451Z,28.40
2023-02-24T18:22:37.695Z,28.30
2023-02-24T18:25:06.371Z,28.30
2023-02-24T18:27:34.929Z,28.40
2023-02-24T18:30:03.405Z,28.40
2023-02-24T18:32:31.842Z,28.30
2023-02-24T18:35:00.204Z,28.30
2023-02-24T18:37:28.506Z,28.30
2023-02-24T18:39:56.616Z,28.30
2023-02-24T18:42:24.965Z,28.30
2023-02-24T18:44:53.120Z,28.20
2023-02-24T18:47:21.248Z,28.20
2023-02-24T18:49:49.517Z,28.10
2023-02-24T18:52:17.794Z,28.00
2023-02-24T18:54:46.206Z,27.90
2023-02-24T18:57:14.577Z,28.00
2023-02-24T18:59:42.730Z,27.90
2023-02-24T19:02:11.551Z,27.90
2023-02-24T19:04:42.994Z,27.90
2023-02-24T19:07:11.192Z,27.90
2023-02-24T19:09:41.613Z,27.80
2023-02-24T19:12:10.250Z,27.80
2023-02-24T19:14:38.383Z,27.80
2023-02-24T19:17:06.663Z,27.80
2023-02-24T19:19:35.056Z,27.80
2023-02-24T19:22:03.396Z,27.70
2023-02-24T19:24:31.648Z,27.70
2023-02-24T19:26:59.971Z,27.70
2023-02-24T19:29:28.383Z,27.70
2023-02-24T19:31:56.754Z,27.70
2023-02-24T19:34:25.201Z,27.70
2023-02-24T19:36:53.309Z,27.70
2023-02-24T19:39:21.689Z,27.70
2023-02-24T19:41:50.093Z,27.70
2023-02-24T19:44:18.351Z,27.70
2023-02-24T19:46:46.621Z,27.70
2023-02-24T19:49:14.870Z,27.70
2023-02-24T19:51:43.224Z,27.70
2023-02-24T19:54:12.972Z,27.60
2023-02-24T19:56:41.216Z,27.60
2023-02-24T19:59:11.133Z,27.60
2023-02-24T20:01:39.736Z,27.60
2023-02-24T20:04:08.135Z,27.60
2023-02-24T20:06:39.238Z,27.50
2023-02-24T20:09:09.611Z,27.50
2023-02-24T20:11:40.645Z,27.60
2023-02-24T20:14:10.355Z,27.50
2023-02-24T20:16:42.914Z,27.50
2023-02-24T20:19:13.355Z,27.50
2023-02-24T20:21:42.010Z,27.50
2023-02-24T20:24:13.963Z,27.50
2023-02-24T20:26:42.769Z,27.40
2023-02-24T20:29:11.763Z,27.50
2023-02-24T20:31:41.308Z,27.50
2023-02-24T20:34:09.854Z,27.40
2023-02-24T20:36:38.390Z,27.40
2023-02-24T20:39:06.917Z,27.40
2023-02-24T20:41:35.782Z,27.40
2023-02-24T20:44:03.950Z,27.40
2023-02-24T20:46:33.220Z,27.50
2023-02-24T20:49:09.945Z,27.40
2023-02-24T20:51:39.211Z,27.50
2023-02-24T20:54:09.662Z,27.40
2023-02-24T20:56:39.642Z,27.40
2023-02-24T20:59:14.418Z,27.40
2023-02-24T21:01:44.524Z,27.40
2023-02-24T21:04:14.773Z,27.40
2023-02-24T21:06:43.097Z,27.40
2023-02-24T21:11:25.798Z,27.30
2023-02-24T21:13:54.514Z,27.30
2023-02-24T21:16:23.475Z,27.30
2023-02-24T21:18:52.316Z,27.40
2023-02-24T21:21:21.356Z,27.30
2023-02-24T21:23:50.193Z,27.30
2023-02-24T21:26:18.871Z,27.30
2023-02-24T21:28:47.328Z,27.30
2023-02-24T21:31:18.903Z,27.30
2023-02-24T21:33:53.796Z,27.30
2023-02-24T21:36:22.746Z,27.30
2023-02-24T21:38:51.100Z,27.30
2023-02-24T21:41:19.667Z,27.30
2023-02-24T21:43:48.291Z,27.30
2023-02-24T21:46:16.608Z,27.30
2023-02-24T21:48:45.026Z,27.20
2023-02-24T21:51:14.160Z,27.20
2023-02-24T21:53:43.330Z,27.30
2023-02-24T21:56:17.649Z,27.20
2023-02-24T21:58:48.768Z,27.20
2023-02-24T22:01:20.592Z,27.20
2023-02-24T22:03:49.326Z,27.20
2023-02-24T22:06:17.635Z,27.20
2023-02-24T22:08:45.962Z,27.20
2023-02-24T22:11:17.600Z,27.20
2023-02-24T22:13:47.082Z,27.20
2023-02-24T22:16:23.383Z,27.20
2023-02-24T22:18:53.870Z,27.20
2023-02-24T22:21:25.791Z,27.20
2023-02-24T22:23:58.064Z,27.20
2023-02-24T22:26:27.853Z,27.20
2023-02-24T22:28:56.675Z,27.20
2023-02-24T22:31:28.075Z,27.20
2023-02-24T22:33:56.912Z,27.20
2023-02-24T22:36:27.881Z,27.20
2023-02-24T22:38:57.845Z,27.20
2023-02-24T22:41:28.651Z,27.20
2023-02-24T22:43:57.298Z,27.20
2023-02-24T22:46:37.426Z,27.20
2023-02-24T22:49:06.792Z,27.20
2023-02-24T22:51:35.067Z,27.20
2023-02-24T22:54:04.089Z,27.20
2023-02-24T22:56:32.804Z,27.20
2023-02-24T22:59:01.788Z,27.20
2023-02-24T23:01:32.782Z,27.20
2023-02-24T23:04:02.500Z,27.20
2023-02-24T23:06:31.624Z,27.20
2023-02-24T23:09:02.348Z,27.20
2023-02-24T23:11:33.945Z,27.20
2023-02-24T23:14:05.362Z,27.20
2023-02-24T23:16:35.560Z,27.20
2023-02-24T23:19:10.517Z,27.20
2023-02-24T23:21:41.704Z,27.20
2023-02-24T23:24:11.627Z,27.20
2023-02-24T23:26:45.919Z,27.10
2023-02-24T23:29:16.684Z,27.10
2023-02-24T23:31:45.647Z,27.10
2023-02-24T23:34:14.202Z,27.10
2023-02-24T23:36:46.816Z,27.10
2023-02-24T23:39:18.476Z,27.10
2023-02-24T23:41:46.833Z,27.10
2023-02-24T23:44:15.076Z,27.10
2023-02-24T23:46:43.620Z,27.10
2023-02-24T23:49:11.922Z,27.00
2023-02-24T23:51:48.141Z,27.10
2023-02-24T23:54:18.533Z,27.00
2023-02-24T23:56:47.018Z,27.10
2023-02-24T23:59:15.849Z,27.00
